createdAt,value
2023-12-24T00:01:02.194Z,0.08
2023-12-24T00:09:45.960Z,0.04
2023-12-24T00:18:12.307Z,0.06
2023-12-24T00:26:36.871Z,0.04
2023-12-24T00:35:00.627Z,-0.01
2023-12-24T00:43:25.704Z,-0.01
2023-12-24T00:51:53.245Z,-0.05
2023-12-24T01:00:19.159Z,-0.08
2023-12-24T01:08:44.804Z,-0.04
2023-12-24T01:17:10.061Z,-0.02
2023-12-24T01:25:34.891Z,0.03
2023-12-24T01:34:00.122Z,0.02
2023-12-24T01:42:25.323Z,-0.03
2023-12-24T01:50:52.272Z,-0.07
2023-12-24T01:59:17.762Z,-0.08
2023-12-24T02:07:44.553Z,-0.19
2023-12-24T02:16:11.594Z,-0.36
2023-12-24T02:24:36.917Z,-0.54
2023-12-24T02:33:08.036Z,-0.71
2023-12-24T02:41:34.197Z,-0.86
2023-12-24T02:49:59.325Z,-1.07
2023-12-24T02:58:24.765Z,-1.19
2023-12-24T03:06:51.905Z,-1.19
2023-12-24T03:15:19.704Z,-1.21
2023-12-24T03:23:44.219Z,-1.30
2023-12-24T03:32:10.527Z,-1.34
2023-12-24T03:40:37.949Z,-1.38
2023-12-24T03:49:06.209Z,-1.45
2023-12-24T03:57:31.751Z,-1.56
2023-12-24T04:05:55.756Z,-1.54
2023-12-24T04:14:21.308Z,-1.49
2023-12-24T04:22:45.844Z,-1.53
2023-12-24T04:31:11.543Z,-1.60
2023-12-24T04:39:38.722Z,-1.67
2023-12-24T04:48:04.984Z,-1.76
2023-12-24T04:56:33.370Z,-1.94
2023-12-24T05:05:01.061Z,-2.13
2023-12-24T05:13:26.020Z,-2.20
2023-12-24T05:21:51.753Z,-2.21
2023-12-24T05:30:17.671Z,-2.29
2023-12-24T05:38:48.654Z,-2.33
2023-12-24T05:47:13.691Z,-2.33
2023-12-24T05:55:38.805Z,-2.42
2023-12-24T06:04:04.965Z,-2.47
2023-12-24T06:12:31.942Z,-2.48
2023-12-24T06:20:56.981Z,-2.54
2023-12-24T06:29:22.082Z,-2.60
2023-12-24T06:37:47.601Z,-2.50
2023-12-24T06:46:15.377Z,-2.38
2023-12-24T06:54:39.630Z,-2.34
2023-12-24T07:03:04.645Z,-2.23
2023-12-24T07:11:30.407Z,-2.11
2023-12-24T07:19:55.982Z,-2.03
2023-12-24T07:28:21.310Z,-1.91
2023-12-24T07:36:45.727Z,-1.75
2023-12-24T07:45:13.545Z,-1.64
2023-12-24T07:53:39.174Z,-1.56
2023-12-24T08:02:06.707Z,-1.39
2023-12-24T08:10:32.847Z,-1.13
2023-12-24T08:18:57.512Z,-1.02
2023-12-24T08:27:24.436Z,-0.93
2023-12-24T08:35:48.894Z,-0.79
2023-12-24T08:44:14.158Z,-0.61
2023-12-24T08:52:41.407Z,-0.48
2023-12-24T09:01:06.662Z,-0.43
2023-12-24T09:09:30.959Z,-0.27
2023-12-24T09:17:57.202Z,-0.15
2023-12-24T09:26:21.617Z,-0.06
2023-12-24T09:34:46.769Z,0.10
2023-12-24T09:43:16.266Z,0.30
2023-12-24T09:51:43.436Z,0.41
2023-12-24T10:00:11.448Z,0.62
2023-12-24T10:08:44.060Z,0.83
2023-12-24T10:17:08.824Z,0.86
2023-12-24T10:25:37.637Z,0.82
2023-12-24T10:34:03.862Z,0.87
2023-12-24T10:42:31.215Z,0.94
2023-12-24T10:50:57.195Z,0.88
2023-12-24T11:00:16.228Z,0.91
2023-12-24T11:08:39.604Z,1.01
2023-12-24T11:17:07.377Z,1.06
2023-12-24T11:25:51.855Z,1.17
2023-12-24T11:34:33.347Z,1.30
2023-12-24T11:43:02.862Z,1.37
2023-12-24T11:51:30.815Z,1.45
2023-12-24T11:59:56.253Z,1.46
2023-12-24T12:08:21.220Z,1.33
2023-12-24T12:16:46.335Z,1.25
2023-12-24T12:25:12.195Z,1.31
2023-12-24T12:33:39.665Z,1.33
2023-12-24T12:42:05.189Z,1.30
2023-12-24T12:50:33.845Z,1.31
2023-12-24T12:58:58.834Z,1.42
2023-12-24T13:07:30.911Z,1.35
2023-12-24T13:16:09.649Z,1.28
2023-12-24T13:24:37.268Z,1.28
2023-12-24T13:33:03.266Z,1.28
2023-12-24T13:41:27.586Z,1.27
2023-12-24T13:49:52.057Z,1.18
2023-12-24T13:58:16.935Z,1.05
2023-12-24T14:06:42.670Z,0.92
2023-12-24T14:15:27.288Z,0.84
2023-12-24T14:23:54.178Z,0.71
2023-12-24T14:32:17.795Z,0.56
2023-12-24T14:40:43.254Z,0.39
2023-12-24T14:49:09.359Z,0.32
2023-12-24T14:57:34.890Z,0.34
2023-12-24T15:06:01.514Z,0.35
2023-12-24T15:14:26.882Z,0.30
2023-12-24T15:22:52.381Z,0.31
2023-12-24T15:31:18.385Z,0.36
2023-12-24T15:39:45.978Z,0.36
2023-12-24T15:48:12.265Z,0.30
2023-12-24T15:56:37.574Z,0.28
2023-12-24T16:05:01.918Z,0.32
2023-12-24T16:13:26.630Z,0.37
2023-12-24T16:22:00.314Z,0.32
2023-12-24T16:30:27.583Z,0.31
2023-12-24T16:38:55.833Z,0.35
2023-12-24T16:47:23.877Z,0.34
2023-12-24T16:55:48.055Z,0.30
2023-12-24T17:04:15.688Z,0.32
2023-12-24T17:12:55.549Z,0.35
2023-12-24T17:21:28.127Z,0.35
2023-12-24T17:29:55.714Z,0.32
2023-12-24T17:38:27.879Z,0.37
2023-12-24T17:46:55.407Z,0.49
2023-12-24T17:55:29.404Z,0.57
2023-12-24T18:04:01.553Z,0.59
2023-12-24T18:12:34.303Z,0.66
2023-12-24T18:21:02.411Z,0.73
2023-12-24T18:29:32.996Z,0.74
2023-12-24T18:38:01.759Z,0.69
2023-12-24T18:46:31.539Z,0.71
2023-12-24T18:54:57.981Z,0.79
2023-12-24T19:03:22.266Z,0.85
2023-12-24T19:11:46.266Z,0.86
2023-12-24T19:20:11.327Z,0.90
2023-12-24T19:28:35.983Z,1.04
2023-12-24T19:37:02.216Z,1.19
2023-12-24T19:45:27.769Z,1.32
2023-12-24T19:53:52.773Z,1.51
2023-12-24T20:02:19.860Z,1.71
2023-12-24T20:10:43.828Z,1.88
2023-12-24T20:19:08.558Z,2.06
2023-12-24T20:27:33.366Z,2.27
2023-12-24T20:35:57.392Z,2.54
2023-12-24T20:44:22.726Z,2.84
2023-12-24T20:52:46.377Z,3.15
2023-12-24T21:01:20.212Z,3.53
2023-12-24T21:09:45.273Z,3.94
2023-12-24T21:18:10.195Z,4.34
2023-12-24T21:26:34.688Z,4.64
2023-12-24T21:35:00.739Z,4.86
2023-12-24T21:43:25.580Z,5.01
2023-12-24T21:51:54.547Z,5.19
2023-12-24T22:00:21.190Z,5.35
2023-12-24T22:08:46.527Z,5.47
2023-12-24T22:17:10.431Z,5.58
2023-12-24T22:25:35.928Z,5.69
2023-12-24T22:34:01.348Z,5.77
2023-12-24T22:42:24.991Z,5.84
2023-12-24T22:50:49.310Z,5.91
2023-12-24T22:59:15.380Z,5.99
2023-12-24T23:07:41.108Z,6.08
2023-12-24T23:16:05.065Z,6.16
2023-12-24T23:24:29.601Z,6.17
2023-12-24T23:32:55.274Z,6.20
2023-12-24T23:41:19.908Z,6.24
2023-12-24T23:49:43.448Z,6.29
2023-12-24T23:58:08.421Z,6.37
